Terminal Aerodrome Forecast
Issued by NWS

Home | Current Version | Previous Version | Text Only | Print | Product List | Glossary On
Versions: 1 2 3 4 5 6 7 8 9 10 11 12
000
FTUS44 KCRP 300500
TAFLRD
TAF
KLRD 300521Z 3006/3106 08009KT P6SM SCT040 BKN250
     FM300800 05006KT P6SM SCT015 BKN040
     FM301000 05014G20KT P6SM BKN015 OVC025
      TEMPO 3011/3014 OVC012
     FM301600 07013KT P6SM BKN025 OVC200
     FM302000 09012KT P6SM SCT025 OVC200
     FM310200 10012KT P6SM BKN018 OVC050=

USA.gov is the U.S. government's official web portal to all federal, state and local government web resources and services.